Main page
METAR-TAF:

METAR-TAF

Airports :

Vilnius Airport

Vilnius, Lithuania

latitude: 54-38N, longitude: 025-06E, elevation: 162 m

Current weather observation

The report was made 5 minutes ago, at 19:20 UTC
Wind 3 kt from the South
Temperature 9°C
Humidity 87%
Pressure 1024 hPa
Visibility 10 km or more
no clouds below 1500 m and no cumulonimbus

METAR: EYVI 171920Z 18003KT CAVOK 09/07 Q1024 NOSIG

Time: 22:25 (19:25 UTC)

Forecast

The report was made 1 hour and 22 minutes ago, at 18:03 UTC
Forecast valid from 17 at 18 UTC to 18 at 18 UTC
Wind 4 kt from variable directions
Visibility: 5000 m
mist
Temporary
from 17 at 18 UTC to 17 at 22 UTC
Visibility: 1000 m
Scattered clouds at a height of 500 ft
Shallow fog
Temporary
from 17 at 22 UTC to 18 at 07 UTC
Visibility: 0500 m
at a height of 200 ft
fog
Becoming
from 18 at 07 UTC to 18 at 09 UTC
Wind 8 kt from the South
Visibility: 9000 m

TAF: EYVI 171803Z 1718/1818 VRB04KT 5000 BR TEMPO 1718/1722 1000 MIFG SCT005 TEMPO 1722/1807 0500 FG VV002 BECMG 1807/1809 19008KT 9000 NSC

Weather observations and forecasts of more than 4000 airports (METAR and TAF reports).

The available stations are represented by yellow and red dots on the map.

Hover mouse over dot to see the name of the station.

Then click to see weather observations and forecasts.

To change the map : click on the green buttons with a black cross to zoom in, on the green button with a dash to zoom out, or on the green arrows for adjacent maps.


METAR-TAF: